createdAt,value
2019-02-20T00:03:49.785Z,5.57
2019-02-20T00:06:25.059Z,5.57
2019-02-20T00:08:56.334Z,5.58
2019-02-20T00:11:27.612Z,5.58
2019-02-20T00:13:57.058Z,5.63
2019-02-20T00:16:25.613Z,5.60
2019-02-20T00:18:57.169Z,5.66
2019-02-20T00:21:28.805Z,5.72
2019-02-20T00:24:00.123Z,5.76
2019-02-20T00:26:31.673Z,5.76
2019-02-20T00:29:03.533Z,5.69
2019-02-20T00:31:35.137Z,5.72
2019-02-20T00:34:08.195Z,5.79
2019-02-20T00:36:39.904Z,5.79
2019-02-20T00:39:11.619Z,5.85
2019-02-20T00:41:43.254Z,5.79
2019-02-20T00:44:16.480Z,5.80
2019-02-20T00:46:58.201Z,5.87
2019-02-20T00:49:31.106Z,5.87
2019-02-20T00:52:01.303Z,5.78
2019-02-20T00:54:33.455Z,5.75
2019-02-20T00:57:05.152Z,5.73
2019-02-20T00:59:36.673Z,5.73
2019-02-20T01:02:08.513Z,5.65
2019-02-20T01:04:40.008Z,5.68
2019-02-20T01:07:11.463Z,5.70
2019-02-20T01:09:42.735Z,5.72
2019-02-20T01:12:14.121Z,5.72
2019-02-20T01:14:42.703Z,5.79
2019-02-20T01:17:15.386Z,5.76
2019-02-20T01:19:46.605Z,5.76
2019-02-20T01:22:17.851Z,5.77
2019-02-20T01:24:49.441Z,5.62
2019-02-20T01:27:21.475Z,5.80
2019-02-20T01:29:53.087Z,5.81
2019-02-20T01:32:24.666Z,5.81
2019-02-20T01:34:53.595Z,5.70
2019-02-20T01:37:22.564Z,5.75
2019-02-20T01:39:51.543Z,5.75
2019-02-20T01:42:20.115Z,5.78
2019-02-20T01:44:48.670Z,5.76
2019-02-20T01:47:19.974Z,5.77
2019-02-20T01:49:48.527Z,5.76
2019-02-20T01:52:20.112Z,5.80
2019-02-20T01:54:48.677Z,5.84
2019-02-20T01:57:20.141Z,5.84
2019-02-20T01:59:53.547Z,5.80
2019-02-20T02:02:25.052Z,5.71
2019-02-20T02:04:56.184Z,5.71
2019-02-20T02:07:27.629Z,5.72
2019-02-20T02:09:56.182Z,5.66
2019-02-20T02:12:24.772Z,5.66
2019-02-20T02:14:55.010Z,5.54
2019-02-20T02:17:26.577Z,5.52
2019-02-20T02:19:55.139Z,5.53
2019-02-20T02:22:26.424Z,5.43
2019-02-20T02:24:54.981Z,5.31
2019-02-20T02:27:26.548Z,5.30
2019-02-20T02:29:55.087Z,5.33
2019-02-20T02:32:26.328Z,5.38
2019-02-20T02:34:56.393Z,5.34
2019-02-20T02:37:27.682Z,5.27
2019-02-20T02:39:59.181Z,5.36
2019-02-20T02:42:30.430Z,5.51
2019-02-20T02:44:59.369Z,5.51
2019-02-20T02:47:30.632Z,5.47
2019-02-20T02:49:59.180Z,5.44
2019-02-20T02:52:28.088Z,5.46
2019-02-20T02:54:56.639Z,5.45
2019-02-20T02:57:28.079Z,5.38
2019-02-20T02:59:56.633Z,5.16
2019-02-20T03:02:28.210Z,5.16
2019-02-20T03:04:56.742Z,5.32
2019-02-20T03:07:29.812Z,5.32
2019-02-20T03:10:01.137Z,5.23
2019-02-20T03:12:32.433Z,5.35
2019-02-20T03:15:00.996Z,5.21
2019-02-20T03:17:32.447Z,5.23
2019-02-20T03:20:00.993Z,5.17
2019-02-20T03:22:32.695Z,5.17
2019-02-20T03:25:01.268Z,5.15
2019-02-20T03:27:32.529Z,5.14
2019-02-20T03:30:01.091Z,4.91
2019-02-20T03:32:32.360Z,4.91
2019-02-20T03:35:00.909Z,4.92
2019-02-20T03:37:29.501Z,4.93
2019-02-20T03:40:01.164Z,4.90
2019-02-20T03:42:29.766Z,4.85
2019-02-20T03:44:58.323Z,4.90
2019-02-20T03:47:31.800Z,4.90
2019-02-20T03:50:00.427Z,4.87
2019-02-20T03:52:31.705Z,4.74
2019-02-20T03:55:03.278Z,4.55
2019-02-20T03:57:34.524Z,4.55
2019-02-20T04:00:03.520Z,4.49
2019-02-20T04:02:35.175Z,4.50
2019-02-20T04:05:07.388Z,4.50
2019-02-20T04:07:38.930Z,4.48
2019-02-20T04:10:10.530Z,4.48
2019-02-20T04:12:41.776Z,4.48
2019-02-20T04:15:10.773Z,4.43
2019-02-20T04:17:39.510Z,4.54
2019-02-20T04:20:10.799Z,4.54
2019-02-20T04:22:42.074Z,4.42
2019-02-20T04:25:10.631Z,4.31
2019-02-20T04:27:39.206Z,4.33
2019-02-20T04:30:11.129Z,4.21
2019-02-20T04:32:42.389Z,4.21
2019-02-20T04:35:10.931Z,4.19
2019-02-20T04:37:42.294Z,4.20
2019-02-20T04:40:13.838Z,4.20
2019-02-20T04:42:45.331Z,4.23
2019-02-20T04:45:17.102Z,4.23
2019-02-20T04:47:48.749Z,4.26
2019-02-20T04:50:19.962Z,4.26
2019-02-20T04:52:53.153Z,4.43
2019-02-20T04:55:24.401Z,4.39
2019-02-20T04:58:32.049Z,4.46
2019-02-20T05:01:03.527Z,4.46
2019-02-20T05:03:34.701Z,4.61
2019-02-20T05:06:03.262Z,4.68
2019-02-20T05:08:31.833Z,4.68
2019-02-20T05:11:02.953Z,4.70
2019-02-20T05:13:34.247Z,4.71
2019-02-20T05:16:03.593Z,4.71
2019-02-20T05:18:34.850Z,4.70
2019-02-20T05:21:06.144Z,4.72
2019-02-20T05:23:37.637Z,4.72
2019-02-20T05:26:06.195Z,4.80
2019-02-20T05:28:37.724Z,4.76
2019-02-20T05:31:09.048Z,4.76
2019-02-20T05:33:40.306Z,4.79
2019-02-20T05:36:11.855Z,4.79
2019-02-20T05:38:43.510Z,4.99
2019-02-20T05:41:12.085Z,4.91
2019-02-20T05:43:43.645Z,4.91
2019-02-20T05:46:15.253Z,4.99
2019-02-20T05:48:46.528Z,5.02
2019-02-20T05:51:15.092Z,5.12
2019-02-20T05:53:46.872Z,5.12
2019-02-20T05:56:15.441Z,5.07
2019-02-20T05:58:46.979Z,5.20
2019-02-20T06:01:15.538Z,5.20
2019-02-20T06:03:46.800Z,5.23
2019-02-20T06:06:18.374Z,5.23
2019-02-20T06:08:49.659Z,5.24
2019-02-20T06:11:18.217Z,5.24
2019-02-20T06:13:46.806Z,5.31
2019-02-20T06:16:15.825Z,5.25
2019-02-20T06:18:47.512Z,5.34
2019-02-20T06:21:16.488Z,5.39
2019-02-20T06:23:47.643Z,5.41
2019-02-20T06:26:19.760Z,5.41
2019-02-20T06:28:51.419Z,5.52
2019-02-20T06:31:19.937Z,5.57
2019-02-20T06:33:53.427Z,5.57
2019-02-20T06:36:25.337Z,5.53
2019-02-20T06:38:56.970Z,5.63
2019-02-20T06:41:28.339Z,5.64
2019-02-20T06:43:56.895Z,5.66
2019-02-20T06:46:28.244Z,5.70
2019-02-20T06:48:59.921Z,5.71
2019-02-20T06:51:28.510Z,5.66
2019-02-20T06:53:57.089Z,5.78
2019-02-20T06:56:25.676Z,5.81
2019-02-20T06:58:57.019Z,5.87
2019-02-20T07:01:25.593Z,6.01
2019-02-20T07:03:56.098Z,6.02
2019-02-20T07:06:30.947Z,6.22
2019-02-20T07:09:24.935Z,6.28
2019-02-20T07:12:08.832Z,6.44
2019-02-20T07:14:56.977Z,6.46
2019-02-20T07:17:46.686Z,6.52
2019-02-20T07:20:37.808Z,6.72
2019-02-20T07:23:30.415Z,6.63
2019-02-20T07:28:57.566Z,6.67
2019-02-20T07:31:29.130Z,6.63
2019-02-20T07:34:00.546Z,6.58
2019-02-20T07:36:29.123Z,6.59
2019-02-20T07:38:57.695Z,6.68
2019-02-20T07:41:29.308Z,6.65
2019-02-20T07:44:00.610Z,6.74
2019-02-20T07:46:32.329Z,6.70
2019-02-20T07:49:03.556Z,6.73
2019-02-20T07:51:35.060Z,6.76
2019-02-20T07:54:04.033Z,6.82
2019-02-20T07:56:35.320Z,6.84
2019-02-20T07:59:06.545Z,6.73
2019-02-20T08:01:38.285Z,6.71
2019-02-20T08:04:06.831Z,6.49
2019-02-20T08:06:35.415Z,6.56
2019-02-20T08:09:06.780Z,6.56
2019-02-20T08:11:38.100Z,6.69
2019-02-20T08:14:06.660Z,6.83
2019-02-20T08:16:38.190Z,6.93
2019-02-20T08:19:09.443Z,7.11
2019-02-20T08:21:41.268Z,7.16
2019-02-20T08:24:09.838Z,7.06
2019-02-20T08:26:41.354Z,7.13
2019-02-20T08:29:13.051Z,7.10
2019-02-20T08:31:41.608Z,7.14
2019-02-20T08:34:10.188Z,7.22
2019-02-20T08:36:38.749Z,7.02
2019-02-20T08:39:10.374Z,7.04
2019-02-20T08:41:41.734Z,6.98
2019-02-20T08:44:12.983Z,6.98
2019-02-20T08:46:44.520Z,6.92
2019-02-20T08:49:13.100Z,6.87
2019-02-20T08:51:41.666Z,7.02
2019-02-20T08:54:10.308Z,7.21
2019-02-20T08:56:38.873Z,7.29
2019-02-20T08:59:10.286Z,7.40
2019-02-20T09:01:41.861Z,7.55
2019-02-20T09:04:10.436Z,7.47
2019-02-20T09:06:38.990Z,7.49
2019-02-20T09:09:10.814Z,7.56
2019-02-20T09:11:39.352Z,7.80
2019-02-20T09:14:10.652Z,7.82
2019-02-20T09:16:39.658Z,7.85
2019-02-20T09:19:11.410Z,7.95
2019-02-20T09:21:42.898Z,8.06
2019-02-20T09:24:11.830Z,8.03
2019-02-20T09:26:40.376Z,7.89
2019-02-20T09:29:08.965Z,8.08
2019-02-20T09:31:40.218Z,8.17
2019-02-20T09:34:11.504Z,7.98
2019-02-20T09:36:42.750Z,7.98
2019-02-20T09:39:34.584Z,8.12
2019-02-20T09:42:03.688Z,8.09
2019-02-20T09:44:35.040Z,8.18
2019-02-20T09:47:03.757Z,8.32
2019-02-20T09:49:35.011Z,8.34
2019-02-20T09:52:03.963Z,8.42
2019-02-20T09:54:35.571Z,8.54
2019-02-20T09:57:35.701Z,8.58
2019-02-20T10:00:00.646Z,8.81
2019-02-20T10:02:29.205Z,8.76
2019-02-20T10:05:00.711Z,8.82
2019-02-20T10:07:29.654Z,8.89
2019-02-20T10:10:01.113Z,8.88
2019-02-20T10:12:32.594Z,8.64
2019-02-20T10:15:01.169Z,8.70
2019-02-20T10:17:32.844Z,8.71
2019-02-20T10:20:04.169Z,8.83
2019-02-20T10:22:32.722Z,8.75
2019-02-20T10:25:05.885Z,8.88
2019-02-20T10:27:37.187Z,9.15
2019-02-20T10:30:08.817Z,8.84
2019-02-20T10:32:37.372Z,8.96
2019-02-20T10:35:09.920Z,8.91
2019-02-20T10:37:38.480Z,9.00
2019-02-20T10:40:11.037Z,9.17
2019-02-20T10:42:39.615Z,9.20
2019-02-20T10:45:12.430Z,9.45
2019-02-20T10:47:44.009Z,9.53
2019-02-20T10:50:15.477Z,9.46
2019-02-20T10:52:46.815Z,9.25
2019-02-20T10:55:15.437Z,9.52
2019-02-20T10:57:46.950Z,9.45
2019-02-20T11:00:24.584Z,9.51
2019-02-20T11:02:54.814Z,9.53
2019-02-20T11:05:26.296Z,9.58
2019-02-20T11:07:54.914Z,9.69
2019-02-20T11:13:39.008Z,9.45
2019-02-20T11:16:07.647Z,9.48
2019-02-20T11:18:39.015Z,9.33
2019-02-20T11:21:10.338Z,9.29
2019-02-20T11:23:38.951Z,9.13
2019-02-20T11:26:17.909Z,9.07
2019-02-20T11:28:43.474Z,9.03
2019-02-20T11:31:15.019Z,8.91
2019-02-20T11:33:46.575Z,8.94
2019-02-20T11:36:18.253Z,8.86
2019-02-20T11:38:46.831Z,8.92
2019-02-20T11:41:18.082Z,9.03
2019-02-20T11:43:46.661Z,9.12
2019-02-20T11:46:18.511Z,9.13
2019-02-20T11:48:47.090Z,9.21
2019-02-20T11:51:18.619Z,9.32
2019-02-20T11:53:47.273Z,9.39
2019-02-20T11:56:26.429Z,9.46
2019-02-20T11:58:53.236Z,9.59
2019-02-20T12:01:24.497Z,9.59
2019-02-20T12:03:53.087Z,9.70
2019-02-20T12:06:30.922Z,9.45
2019-02-20T12:08:59.614Z,9.56
2019-02-20T12:11:33.336Z,9.61
2019-02-20T12:14:01.985Z,9.92
2019-02-20T12:16:33.658Z,10.02
2019-02-20T12:19:05.150Z,9.88
2019-02-20T12:21:36.667Z,9.69
2019-02-20T12:24:05.341Z,9.65
2019-02-20T12:26:53.534Z,9.55
2019-02-20T12:29:22.682Z,9.52
2019-02-20T12:31:55.587Z,9.65
2019-02-20T12:34:28.216Z,9.83
2019-02-20T12:36:56.902Z,10.10
2019-02-20T12:39:25.488Z,10.19
2019-02-20T12:41:57.233Z,10.37
2019-02-20T12:44:28.809Z,10.55
2019-02-20T12:47:00.255Z,10.56
2019-02-20T12:49:28.838Z,10.43
2019-02-20T12:51:57.400Z,10.18
2019-02-20T12:54:26.550Z,9.97
2019-02-20T12:56:57.889Z,10.07
2019-02-20T12:59:29.188Z,10.14
2019-02-20T13:02:00.736Z,10.21
2019-02-20T13:04:32.049Z,10.33
2019-02-20T13:07:00.636Z,10.52
2019-02-20T13:09:31.898Z,10.63
2019-02-20T13:12:00.488Z,10.91
2019-02-20T13:14:32.192Z,10.76
2019-02-20T13:17:03.871Z,10.83
2019-02-20T13:19:35.653Z,10.78
2019-02-20T13:22:07.274Z,10.70
2019-02-20T13:24:35.831Z,10.54
2019-02-20T13:27:10.260Z,10.45
2019-02-20T13:29:38.887Z,10.33
2019-02-20T13:32:10.405Z,10.20
2019-02-20T13:34:38.968Z,10.00
2019-02-20T13:37:10.355Z,10.06
2019-02-20T13:39:41.943Z,10.11
2019-02-20T13:42:13.418Z,10.22
2019-02-20T13:44:45.294Z,10.40
2019-02-20T13:47:16.591Z,10.64
2019-02-20T13:49:45.224Z,10.45
2019-02-20T13:52:14.270Z,10.33
2019-02-20T13:54:45.829Z,10.34
2019-02-20T13:57:17.097Z,10.41
2019-02-20T13:59:48.604Z,10.27
2019-02-20T14:02:20.466Z,10.35
2019-02-20T14:04:55.527Z,10.62
2019-02-20T14:07:27.029Z,10.53
2019-02-20T14:09:55.624Z,10.69
2019-02-20T14:12:26.943Z,10.80
2019-02-20T14:14:56.902Z,10.66
2019-02-20T14:17:28.333Z,10.57
2019-02-20T14:19:59.655Z,10.50
2019-02-20T14:22:31.187Z,10.50
2019-02-20T14:25:00.022Z,10.58
2019-02-20T14:27:31.750Z,10.49
2019-02-20T14:30:03.028Z,10.39
2019-02-20T14:32:34.584Z,10.51
2019-02-20T14:35:09.002Z,10.40
2019-02-20T14:37:39.336Z,10.24
2019-02-20T14:40:09.430Z,10.30
2019-02-20T14:42:40.738Z,10.38
2019-02-20T14:45:15.470Z,10.46
2019-02-20T14:47:46.991Z,10.35
2019-02-20T14:50:15.548Z,10.30
2019-02-20T14:52:44.135Z,10.29
2019-02-20T14:55:15.617Z,10.37
2019-02-20T14:57:47.044Z,10.14
2019-02-20T15:00:16.453Z,10.11
2019-02-20T15:02:48.281Z,10.03
2019-02-20T15:05:20.219Z,9.86
2019-02-20T15:07:54.013Z,9.85
2019-02-20T15:10:22.646Z,9.87
2019-02-20T15:12:52.599Z,9.87
2019-02-20T15:15:23.996Z,9.79
2019-02-20T15:17:55.776Z,9.75
2019-02-20T15:20:30.314Z,9.74
2019-02-20T15:23:01.680Z,9.72
2019-02-20T15:25:32.894Z,9.70
2019-02-20T15:28:04.733Z,9.78
2019-02-20T15:30:33.416Z,9.81
2019-02-20T15:33:05.393Z,9.83
2019-02-20T15:35:36.917Z,9.78
2019-02-20T15:38:08.522Z,9.80
2019-02-20T15:40:40.063Z,9.76
2019-02-20T15:43:11.322Z,9.75
2019-02-20T15:45:40.137Z,9.75
2019-02-20T15:48:11.521Z,9.65
2019-02-20T15:50:42.778Z,9.63
2019-02-20T15:53:11.363Z,9.74
2019-02-20T15:55:42.894Z,9.60
2019-02-20T15:58:14.363Z,9.61
2019-02-20T16:00:46.827Z,9.52
2019-02-20T16:03:18.188Z,9.59
2019-02-20T16:05:49.439Z,9.51
2019-02-20T16:08:21.011Z,9.57
2019-02-20T16:10:49.621Z,9.61
2019-02-20T16:13:22.160Z,9.54
2019-02-20T16:15:55.419Z,9.50
2019-02-20T16:18:26.845Z,9.46
2019-02-20T16:20:55.409Z,9.38
2019-02-20T16:23:26.857Z,9.49
2019-02-20T16:25:55.443Z,9.42
2019-02-20T16:28:33.556Z,9.45
2019-02-20T16:31:00.333Z,9.32
2019-02-20T16:33:31.539Z,9.25
2019-02-20T16:36:03.061Z,9.40
2019-02-20T16:38:31.612Z,9.32
2019-02-20T16:41:04.716Z,9.30
2019-02-20T16:43:36.320Z,9.20
2019-02-20T16:46:04.892Z,9.06
2019-02-20T16:48:36.131Z,9.18
2019-02-20T16:51:04.739Z,9.15
2019-02-20T16:53:34.280Z,9.15
2019-02-20T16:56:02.854Z,9.21
2019-02-20T16:58:34.544Z,9.26
2019-02-20T17:01:07.103Z,9.20
2019-02-20T17:03:38.643Z,9.19
2019-02-20T17:06:10.207Z,9.05
2019-02-20T17:08:39.831Z,9.00
2019-02-20T17:11:11.580Z,8.93
2019-02-20T17:13:40.155Z,8.89
2019-02-20T17:16:11.475Z,8.83
2019-02-20T17:18:40.040Z,8.80
2019-02-20T17:21:11.575Z,8.76
2019-02-20T17:23:40.199Z,8.76
2019-02-20T17:26:08.853Z,8.90
2019-02-20T17:28:40.114Z,8.91
2019-02-20T17:31:08.757Z,8.91
2019-02-20T17:33:40.431Z,8.83
2019-02-20T17:36:12.320Z,8.91
2019-02-20T17:38:41.098Z,8.81
2019-02-20T17:41:10.322Z,8.67
2019-02-20T17:43:42.168Z,8.69
2019-02-20T17:46:14.031Z,8.69
2019-02-20T17:48:42.588Z,8.65
2019-02-20T17:51:11.459Z,8.69
2019-02-20T17:53:41.424Z,8.68
2019-02-20T17:56:12.721Z,8.47
2019-02-20T17:58:44.024Z,8.50
2019-02-20T18:01:16.543Z,8.43
2019-02-20T18:03:45.109Z,8.37
2019-02-20T18:06:13.867Z,8.35
2019-02-20T18:08:45.071Z,8.34
2019-02-20T18:11:16.765Z,8.26
2019-02-20T18:13:45.692Z,8.20
2019-02-20T18:16:14.305Z,8.10
2019-02-20T18:18:42.893Z,8.07
2019-02-20T18:21:15.221Z,8.21
2019-02-20T18:23:47.165Z,8.12
2019-02-20T18:26:18.742Z,8.10
2019-02-20T18:28:50.239Z,8.06
2019-02-20T18:31:24.052Z,7.98
2019-02-20T18:33:56.072Z,7.99
2019-02-20T18:36:24.812Z,7.94
2019-02-20T18:38:55.324Z,8.01
2019-02-20T18:41:23.920Z,7.98
2019-02-20T18:43:55.487Z,7.92
2019-02-20T18:46:26.839Z,7.92
2019-02-20T18:48:58.260Z,7.89
2019-02-20T18:51:29.593Z,7.92
2019-02-20T18:53:58.158Z,7.91
2019-02-20T18:56:26.756Z,7.85
2019-02-20T18:58:58.101Z,7.90
2019-02-20T19:01:30.100Z,7.88
2019-02-20T19:04:01.717Z,7.81
2019-02-20T19:06:30.400Z,7.80
2019-02-20T19:09:02.491Z,7.78
2019-02-20T19:11:51.227Z,7.71
2019-02-20T19:14:31.698Z,7.67
2019-02-20T19:17:27.210Z,7.70
2019-02-20T19:20:20.144Z,7.66
2019-02-20T19:23:17.348Z,7.68
2019-02-20T19:26:07.209Z,7.72
2019-02-20T19:28:56.873Z,7.70
2019-02-20T19:31:40.229Z,7.66
2019-02-20T19:34:17.615Z,7.64
2019-02-20T19:37:22.669Z,7.55
2019-02-20T19:40:03.445Z,7.58
2019-02-20T19:42:59.174Z,7.59
2019-02-20T19:45:42.640Z,7.53
2019-02-20T19:48:33.520Z,7.68
2019-02-20T19:51:26.623Z,7.63
2019-02-20T19:54:13.472Z,7.58
2019-02-20T19:57:11.043Z,7.68
2019-02-20T20:00:01.334Z,7.59
2019-02-20T20:03:02.703Z,7.57
2019-02-20T20:05:52.984Z,7.45
2019-02-20T20:08:26.227Z,7.40
2019-02-20T20:11:17.471Z,7.40
2019-02-20T20:14:10.185Z,7.39
2019-02-20T20:16:53.663Z,7.30
2019-02-20T20:19:45.675Z,7.36
2019-02-20T20:22:43.312Z,7.33
2019-02-20T20:25:24.649Z,7.28
2019-02-20T20:28:01.992Z,7.30
2019-02-20T20:30:56.346Z,7.23
2019-02-20T20:33:37.046Z,7.31
2019-02-20T20:36:25.980Z,7.26
2019-02-20T20:39:10.101Z,7.26
2019-02-20T20:42:13.708Z,7.25
2019-02-20T20:45:14.329Z,7.16
2019-02-20T20:48:19.384Z,7.17
2019-02-20T20:51:10.107Z,7.16
2019-02-20T20:53:56.539Z,7.12
2019-02-20T20:56:36.865Z,7.17
2019-02-20T20:59:17.966Z,7.16
2019-02-20T21:02:11.570Z,7.20
2019-02-20T21:04:54.201Z,7.09
2019-02-20T21:07:41.099Z,7.19
2019-02-20T21:10:24.527Z,7.11
2019-02-20T21:13:14.206Z,7.04
2019-02-20T21:16:00.959Z,7.04
2019-02-20T21:19:05.919Z,7.01
2019-02-20T21:21:58.730Z,6.95
2019-02-20T21:24:42.037Z,6.99
2019-02-20T21:27:22.716Z,6.94
2019-02-20T21:30:13.436Z,7.01
2019-02-20T21:32:50.263Z,7.00
2019-02-20T21:35:27.492Z,6.94
2019-02-20T21:38:30.933Z,6.85
2019-02-20T21:41:08.136Z,6.87
2019-02-20T21:43:48.763Z,6.96
2019-02-20T21:46:53.751Z,6.89
2019-02-20T21:49:37.814Z,6.80
2019-02-20T21:52:33.085Z,6.80
2019-02-20T21:55:29.112Z,6.82
2019-02-20T21:58:27.320Z,6.90
2019-02-20T22:01:04.960Z,6.91
2019-02-20T22:03:56.527Z,6.89
2019-02-20T22:06:53.029Z,6.85
2019-02-20T22:09:30.157Z,6.81
2019-02-20T22:12:36.700Z,6.72
2019-02-20T22:15:17.271Z,6.81
2019-02-20T22:17:54.542Z,6.80
2019-02-20T22:20:31.987Z,6.72
2019-02-20T22:23:33.873Z,6.70
2019-02-20T22:26:11.164Z,6.62
2019-02-20T22:28:57.637Z,6.54
2019-02-20T22:31:38.151Z,6.49
2019-02-20T22:34:29.541Z,6.44
2019-02-20T22:37:04.204Z,6.42
2019-02-20T22:39:53.945Z,6.33
2019-02-20T22:42:28.708Z,6.29
2019-02-20T22:45:12.475Z,6.06
2019-02-20T22:48:06.478Z,6.06
2019-02-20T22:50:56.464Z,5.89
2019-02-20T22:53:48.224Z,5.89
2019-02-20T22:56:53.301Z,5.83
2019-02-20T23:00:02.791Z,5.84
2019-02-20T23:02:50.631Z,5.73
2019-02-20T23:05:28.601Z,5.76
2019-02-20T23:08:02.940Z,5.70
2019-02-20T23:10:39.732Z,5.71
2019-02-20T23:13:41.238Z,5.72
2019-02-20T23:16:12.594Z,5.72
2019-02-20T23:18:44.274Z,5.67
2019-02-20T23:21:15.861Z,5.68
2019-02-20T23:23:47.165Z,5.68
2019-02-20T23:26:18.409Z,5.65
2019-02-20T23:28:49.890Z,5.56
2019-02-20T23:31:21.431Z,5.56
2019-02-20T23:33:53.188Z,5.61
2019-02-20T23:36:24.544Z,5.57
2019-02-20T23:38:56.249Z,5.57
2019-02-20T23:41:27.769Z,5.49
2019-02-20T23:43:59.397Z,5.49
2019-02-20T23:46:31.060Z,5.50
2019-02-20T23:49:02.560Z,5.43
2019-02-20T23:51:34.063Z,5.46
2019-02-20T23:54:03.261Z,5.38
2019-02-20T23:56:34.667Z,5.40
2019-02-20T23:59:06.276Z,5.40
